Time;durP1;ratioP1;P1;durP2;ratioP2;P2;SDS_P1;SDS_P2;PMS_P1;PMS_P2;Temp;Humidity;BMP_temperature;BMP_pressure;BME280_temperature;BME280_humidity;BME280_pressure;Samples;Min_cycle;Max_cycle;Signal;HPM_P1;HPM_P2
2022/06/14 00:01:31;;;;;;;1.67;1.27;;;;;;;;;;5048208;28;20437;-83
2022/06/14 00:03:57;;;;;;;2.37;1.50;;;;;;;;;;5030793;28;20454;-83
2022/06/14 00:06:26;;;;;;;1.43;1.10;;;24.10;45.60;;;;;;5048638;28;20450;-83
2022/06/14 00:08:52;;;;;;;2.40;1.47;;;;;;;;;;5048875;28;20757;-83
2022/06/14 00:11:22;;;;;;;1.47;1.10;;;24.10;45.70;;;;;;5049995;28;20430;-83
2022/06/14 00:13:48;;;;;;;1.20;1.20;;;24.10;44.70;;;;;;5052880;28;20458;-83
2022/06/14 00:16:15;;;;;;;1.30;1.20;;;26.00;51.90;;;;;;5053291;28;20415;-83
2022/06/14 00:18:41;;;;;;;1.50;1.33;;;;;;;;;;5053122;28;20407;-82
2022/06/14 00:21:07;;;;;;;2.43;1.20;;;24.00;45.70;;;;;;5052182;28;20469;-83
2022/06/14 00:23:33;;;;;;;4.20;1.60;;;;;;;;;;5052821;28;20891;-83
2022/06/14 00:26:00;;;;;;;1.20;1.20;;;;;;;;;;5052813;28;20413;-83
2022/06/14 00:28:27;;;;;;;2.80;1.40;;;23.90;45.80;;;;;;5052465;28;20415;-83
2022/06/14 00:30:56;;;;;;;1.73;1.63;;;24.00;46.20;;;;;;5052380;28;20466;-83
2022/06/14 00:33:22;;;;;;;1.60;1.50;;;;;;;;;;5052475;28;20485;-83
2022/06/14 00:35:48;;;;;;;1.60;1.50;;;;;;;;;;5051882;28;20859;-83
2022/06/14 00:38:15;;;;;;;1.80;1.70;;;24.10;54.30;;;;;;5051746;28;20415;-83
2022/06/14 00:40:49;;;;;;;1.20;1.10;;;23.90;46.30;;;;;;5051938;28;20446;-83
2022/06/14 00:43:17;;;;;;;2.20;1.50;;;23.90;46.20;;;;;;5051076;28;20729;-83
2022/06/14 00:45:43;;;;;;;2.50;1.70;;;;;;;;;;5032131;28;20423;-83
2022/06/14 00:48:22;;;;;;;1.40;1.30;;;23.90;46.10;;;;;;5031946;28;20511;-83
2022/06/14 00:51:05;;;;;;;1.63;1.53;;;23.90;44.40;;;;;;5031944;28;20307;-83
2022/06/14 00:53:48;;;;;;;1.47;1.40;;;23.90;46.20;;;;;;5037331;28;20990;-83
2022/06/14 00:56:21;;;;;;;1.60;1.50;;;23.80;44.50;;;;;;5052195;28;21097;-83
2022/06/14 00:58:56;;;;;;;2.10;2.00;;;23.50;46.20;;;;;;5051646;28;20407;-83
2022/06/14 01:01:34;;;;;;;4.53;1.60;;;23.80;47.20;;;;;;5050996;28;20478;-83
2022/06/14 01:04:13;;;;;;;2.07;1.60;;;23.80;44.60;;;;;;5033855;28;20422;-83
2022/06/14 01:07:07;;;;;;;1.40;1.30;;;23.80;44.90;;;;;;5051837;28;20518;-83
2022/06/14 01:09:37;;;;;;;1.87;1.77;;;24.80;45.40;;;;;;5051304;28;20429;-83
2022/06/14 01:12:19;;;;;;;3.00;1.60;;;23.70;44.90;;;;;;5051568;28;20446;-83
2022/06/14 01:14:55;;;;;;;2.00;1.63;;;23.70;52.60;;;;;;5032940;28;20434;-83
2022/06/14 01:17:22;;;;;;;1.40;1.30;;;;;;;;;;5033321;28;20430;-84
2022/06/14 01:19:47;;;;;;;3.57;1.60;;;23.70;54.20;;;;;;5051415;28;20472;-83
2022/06/14 01:22:13;;;;;;;2.20;1.77;;;;;;;;;;5050058;28;20462;-83
2022/06/14 01:24:41;;;;;;;1.53;1.43;;;23.70;47.70;;;;;;5050916;28;20209;-83
2022/06/14 01:27:10;;;;;;;1.70;1.50;;;23.60;47.40;;;;;;5050901;28;20180;-83
2022/06/14 01:29:37;;;;;;;1.60;1.50;;;25.20;48.40;;;;;;5032827;28;20430;-83
2022/06/14 01:32:06;;;;;;;1.67;1.40;;;23.60;47.40;;;;;;5050856;28;20439;-83
2022/06/14 01:34:35;;;;;;;2.70;1.77;;;23.60;47.30;;;;;;5051277;28;20412;-83
2022/06/14 01:37:01;;;;;;;5.57;1.90;;;;;;;;;;5050814;28;20423;-83
2022/06/14 01:39:28;;;;;;;1.60;1.50;;;23.70;48.80;;;;;;5050948;28;20520;-83
2022/06/14 01:42:05;;;;;;;3.30;1.30;;;23.50;46.00;;;;;;5050851;28;20532;-83
2022/06/14 01:44:53;;;;;;;2.90;1.90;;;23.50;46.20;;;;;;5050519;28;20429;-83
2022/06/14 01:47:49;;;;;;;3.63;1.80;;;23.50;46.10;;;;;;5051162;28;20392;-83
2022/06/14 01:53:21;;;;;;;4.23;2.30;;;23.50;46.00;;;;;;5050411;28;20496;-83
2022/06/14 01:55:47;;;;;;;1.33;1.27;;;;;;;;;;5050693;28;21137;-83
2022/06/14 01:58:24;;;;;;;1.60;1.50;;;23.60;55.90;;;;;;5050352;28;20519;-83
2022/06/14 02:01:11;;;;;;;1.30;1.30;;;23.40;49.20;;;;;;5050631;28;20422;-83
2022/06/14 02:06:40;;;;;;;1.40;1.30;;;23.30;46.40;;;;;;5050522;28;20893;-83
2022/06/14 02:09:38;;;;;;;1.33;1.00;;;23.70;49.30;;;;;;5050357;28;20399;-83
2022/06/14 02:12:08;;;;;;;1.70;1.50;;;23.30;49.10;;;;;;5050067;28;20442;-83
2022/06/14 02:14:39;;;;;;;3.10;2.00;;;23.00;48.70;;;;;;5050085;28;20960;-83
2022/06/14 02:17:16;;;;;;;2.77;1.33;;;23.20;54.70;;;;;;5049854;28;20514;-83
2022/06/14 02:19:50;;;;;;;1.40;1.30;;;23.30;46.20;;;;;;5049734;28;20956;-83
2022/06/14 02:22:27;;;;;;;1.57;1.13;;;23.20;46.10;;;;;;5050032;28;20457;-83
2022/06/14 02:24:57;;;;;;;2.97;1.20;;;23.20;48.10;;;;;;5050088;28;20413;-83
2022/06/14 02:27:35;;;;;;;1.53;1.50;;;23.20;51.00;;;;;;5050270;28;20403;-83
2022/06/14 02:30:17;;;;;;;1.37;1.37;;;23.10;45.90;;;;;;5050032;28;20410;-83
2022/06/14 02:32:54;;;;;;;1.63;1.53;;;23.70;47.60;;;;;;5031596;28;20794;-83
2022/06/14 02:35:29;;;;;;;2.97;1.33;;;22.40;45.70;;;;;;5049608;28;20478;-83
2022/06/14 02:38:35;;;;;;;1.50;1.50;;;23.10;46.10;;;;;;5049410;28;20417;-83
2022/06/14 02:41:21;;;;;;;1.33;1.33;;;23.10;47.30;;;;;;5008591;28;20442;-83
2022/06/14 02:43:59;;;;;;;1.37;1.30;;;22.20;47.20;;;;;;5044624;28;20416;-82
2022/06/14 02:46:25;;;;;;;1.60;1.50;;;;;;;;;;5030060;28;20556;-83
2022/06/14 02:49:07;;;;;;;1.20;1.20;;;23.30;46.60;;;;;;5029976;28;20416;-83
2022/06/14 02:52:07;;;;;;;2.40;1.20;;;23.30;48.60;;;;;;5035645;28;20912;-83
2022/06/14 02:54:43;;;;;;;1.27;1.17;;;23.30;49.20;;;;;;5049688;28;20420;-83
2022/06/14 02:57:09;;;;;;;1.57;1.47;;;;;;;;;;5032078;28;20406;-83
2022/06/14 02:59:48;;;;;;;2.10;1.40;;;23.30;47.00;;;;;;5049217;28;20410;-83
2022/06/14 03:02:28;;;;;;;2.97;1.30;;;23.40;47.20;;;;;;5049204;28;20541;-83
2022/06/14 03:05:08;;;;;;;2.77;1.53;;;23.20;51.80;;;;;;5049629;28;20391;-83
2022/06/14 03:07:40;;;;;;;1.33;1.23;;;22.80;49.30;;;;;;5049231;28;20813;-82
2022/06/14 03:10:06;;;;;;;1.43;1.30;;;25.00;49.20;;;;;;5049161;28;20427;-83
2022/06/14 03:12:42;;;;;;;1.93;1.10;;;23.30;60.40;;;;;;5049239;28;20458;-83
2022/06/14 03:15:08;;;;;;;1.30;1.17;;;;;;;;;;5049067;28;20410;-83
2022/06/14 03:17:34;;;;;;;1.00;1.00;;;;;;;;;;5048898;28;20426;-83
2022/06/14 03:20:18;;;;;;;1.43;0.93;;;23.50;47.50;;;;;;5049222;28;21072;-83
2022/06/14 03:23:03;;;;;;;1.63;1.37;;;23.60;59.10;;;;;;5049342;28;20602;-83
2022/06/14 03:25:39;;;;;;;3.53;2.07;;;23.40;47.30;;;;;;5049831;28;20490;-82
2022/06/14 03:28:16;;;;;;;1.90;1.17;;;23.50;47.30;;;;;;5049644;28;20546;-83
2022/06/14 03:30:45;;;;;;;1.33;1.27;;;23.70;49.00;;;;;;5049195;28;20427;-83
2022/06/14 03:33:27;;;;;;;1.40;1.30;;;23.30;47.30;;;;;;5048936;28;20454;-82
2022/06/14 03:35:54;;;;;;;1.27;1.03;;;23.10;48.70;;;;;;5049384;28;20770;-82
2022/06/14 03:38:37;;;;;;;2.00;1.20;;;23.50;47.40;;;;;;5049521;28;20465;-82
2022/06/14 03:41:03;;;;;;;1.10;1.10;;;;;;;;;;5048813;28;20461;-83
2022/06/14 03:43:32;;;;;;;1.33;1.23;;;23.50;48.90;;;;;;5049389;28;20419;-83
2022/06/14 03:46:07;;;;;;;2.90;1.10;;;23.60;53.70;;;;;;5050017;28;20821;-83
2022/06/14 03:48:36;;;;;;;1.10;1.10;;;23.50;49.20;;;;;;5053575;28;20406;-83
2022/06/14 03:51:23;;;;;;;2.00;1.70;;;23.40;50.00;;;;;;5052747;28;20815;-83
2022/06/14 03:54:22;;;;;;;1.27;1.20;;;23.50;52.10;;;;;;5053015;28;20441;-83
2022/06/14 03:57:00;;;;;;;1.50;1.40;;;24.10;47.90;;;;;;5052783;28;20510;-83
2022/06/14 03:59:41;;;;;;;1.40;1.30;;;22.80;47.00;;;;;;5034809;28;20583;-83
2022/06/14 04:02:15;;;;;;;1.03;1.03;;;23.50;51.40;;;;;;5052643;28;20434;-83
2022/06/14 04:04:41;;;;;;;5.03;1.60;;;;;;;;;;5032601;28;20406;-83
2022/06/14 04:07:49;;;;;;;4.10;1.63;;;23.50;47.20;;;;;;5031208;28;20438;-83
2022/06/14 04:10:38;;;;;;;2.00;1.67;;;23.50;47.30;;;;;;5031079;28;20260;-83
2022/06/14 04:13:04;;;;;;;5.60;1.07;;;;;;;;;;5039243;28;20450;-83
2022/06/14 04:15:31;;;;;;;1.43;1.20;;;;;;;;;;5052623;28;20836;-83
2022/06/14 04:18:34;;;;;;;1.50;1.30;;;23.60;75.60;;;;;;5034607;28;20177;-83
2022/06/14 04:21:25;;;;;;;1.07;1.07;;;23.50;50.40;;;;;;5048083;28;20564;-83
2022/06/14 04:24:16;;;;;;;1.70;1.20;;;23.50;50.50;;;;;;5046692;28;20446;-83
2022/06/14 04:27:00;;;;;;;1.37;0.70;;;23.50;47.00;;;;;;5050988;28;20793;-83
2022/06/14 04:30:08;;;;;;;1.30;1.20;;;23.80;47.00;;;;;;5051860;28;20451;-83
2022/06/14 04:32:50;;;;;;;2.07;1.30;;;23.40;49.50;;;;;;4970360;28;20470;-83
2022/06/14 04:35:18;;;;;;;1.57;0.83;;;25.70;48.10;;;;;;4970952;28;20423;-83
2022/06/14 04:37:53;;;;;;;2.43;0.93;;;23.80;49.60;;;;;;5021153;28;20480;-83
2022/06/14 04:40:40;;;;;;;0.80;0.80;;;23.50;49.30;;;;;;5052000;28;20407;-83
2022/06/14 04:43:15;;;;;;;1.60;1.50;;;23.50;46.90;;;;;;5051888;28;20430;-83
2022/06/14 04:45:56;;;;;;;1.33;1.23;;;23.60;46.90;;;;;;5032481;28;20443;-83
2022/06/14 04:48:31;;;;;;;1.13;1.13;;;23.50;49.10;;;;;;5035068;28;20479;-83
2022/06/14 04:51:04;;;;;;;1.07;1.07;;;23.80;49.20;;;;;;5052100;28;20943;-83
2022/06/14 04:53:38;;;;;;;1.13;1.13;;;23.40;49.80;;;;;;5034070;28;20918;-83
2022/06/14 04:56:13;;;;;;;1.23;1.13;;;23.40;49.20;;;;;;5052017;28;20878;-83
2022/06/14 04:58:56;;;;;;;1.00;0.97;;;23.50;47.00;;;;;;5051112;28;20870;-83
2022/06/14 05:01:48;;;;;;;0.90;0.90;;;23.40;47.10;;;;;;5051262;28;20825;-83
2022/06/14 05:04:37;;;;;;;1.60;1.50;;;23.60;47.20;;;;;;5050925;28;20500;-83
2022/06/14 05:07:30;;;;;;;1.53;1.43;;;23.70;58.60;;;;;;5050923;28;20963;-83
2022/06/14 05:10:18;;;;;;;1.27;1.17;;;23.30;51.30;;;;;;5051758;28;20422;-83
2022/06/14 05:12:59;;;;;;;1.90;1.20;;;23.60;53.60;;;;;;5051102;28;20462;-83
2022/06/14 05:15:35;;;;;;;0.77;0.77;;;23.60;49.60;;;;;;5051790;28;20437;-82
2022/06/14 05:18:07;;;;;;;1.00;1.00;;;23.60;49.40;;;;;;5051880;28;20840;-83
2022/06/14 05:21:09;;;;;;;2.07;1.37;;;23.50;58.20;;;;;;5051457;28;20855;-83
2022/06/14 05:23:43;;;;;;;1.10;1.00;;;23.60;47.20;;;;;;5051493;28;20846;-83
2022/06/14 05:26:09;;;;;;;1.77;1.67;;;;;;;;;;5051420;28;20812;-83
2022/06/14 05:28:47;;;;;;;1.30;1.20;;;23.60;49.50;;;;;;5050794;28;20433;-83
2022/06/14 05:31:29;;;;;;;1.00;1.00;;;23.60;47.20;;;;;;5050825;28;20569;-83
2022/06/14 05:34:03;;;;;;;1.37;0.97;;;23.60;49.10;;;;;;5050897;28;20470;-83
2022/06/14 05:36:35;;;;;;;1.30;1.23;;;23.60;49.40;;;;;;5051166;28;20896;-83
2022/06/14 05:39:15;;;;;;;0.90;0.90;;;23.60;47.60;;;;;;5051005;28;20396;-83
2022/06/14 05:41:48;;;;;;;1.33;1.23;;;23.60;49.30;;;;;;5045451;28;20487;-83
2022/06/14 05:44:30;;;;;;;1.20;0.97;;;23.60;47.30;;;;;;5048738;28;20426;-83
2022/06/14 05:47:02;;;;;;;1.00;1.00;;;23.70;53.10;;;;;;5064028;28;20418;-83
2022/06/14 05:49:34;;;;;;;1.03;1.03;;;23.70;49.60;;;;;;5050964;28;20469;-83
2022/06/14 05:52:10;;;;;;;1.83;1.20;;;23.60;64.30;;;;;;5046036;28;20859;-84
2022/06/14 05:54:48;;;;;;;1.20;1.10;;;23.50;50.90;;;;;;5042924;28;21245;-83
2022/06/14 05:57:17;;;;;;;4.20;1.37;;;23.80;48.60;;;;;;5050723;28;20454;-83
2022/06/14 05:59:56;;;;;;;2.23;1.20;;;23.60;47.30;;;;;;5050269;28;20508;-84
2022/06/14 06:02:22;;;;;;;3.33;1.57;;;;;;;;;;5045798;28;20446;-84
2022/06/14 06:04:48;;;;;;;1.57;1.13;;;;;;;;;;5044718;28;20399;-83
2022/06/14 06:07:18;;;;;;;1.23;1.13;;;23.60;49.20;;;;;;5046765;28;20605;-83
2022/06/14 06:10:19;;;;;;;1.27;0.83;;;23.60;47.00;;;;;;5049914;28;20180;-83
2022/06/14 06:12:52;;;;;;;1.73;1.17;;;23.60;47.80;;;;;;5034306;28;20481;-83
2022/06/14 06:15:26;;;;;;;1.80;0.93;;;24.90;47.80;;;;;;5049905;28;20488;-84
2022/06/14 06:17:59;;;;;;;1.00;1.00;;;23.50;47.80;;;;;;5050211;28;20839;-84
2022/06/14 06:20:52;;;;;;;1.60;1.50;;;23.40;47.00;;;;;;5032469;28;20442;-85
2022/06/14 06:23:29;;;;;;;1.00;1.00;;;23.60;47.20;;;;;;5050329;28;20403;-84
2022/06/14 06:25:56;;;;;;;4.33;1.00;;;23.60;47.80;;;;;;5050162;28;20553;-83
2022/06/14 06:28:23;;;;;;;1.93;1.70;;;;;;;;;;5050126;28;20857;-84
2022/06/14 06:31:22;;;;;;;5.90;1.77;;;23.60;47.20;;;;;;5049783;28;20451;-84
2022/06/14 06:33:52;;;;;;;1.10;1.10;;;23.70;48.00;;;;;;5047905;28;20841;-84
2022/06/14 06:36:35;;;;;;;1.73;1.20;;;23.60;47.60;;;;;;5032168;28;21109;-85
2022/06/14 06:39:21;;;;;;;1.03;1.00;;;23.70;65.00;;;;;;5053534;28;20410;-86
2022/06/14 06:41:50;;;;;;;1.30;1.20;;;23.40;56.80;;;;;;5044979;28;20453;-84
2022/06/14 06:44:50;;;;;;;1.20;1.10;;;23.70;48.30;;;;;;5053406;28;20415;-84
2022/06/14 06:47:28;;;;;;;3.63;1.87;;;23.70;48.80;;;;;;5042161;28;20450;-84
2022/06/14 06:50:03;;;;;;;1.87;1.77;;;23.70;48.70;;;;;;5049542;28;20423;-83
2022/06/14 06:52:50;;;;;;;1.50;1.40;;;23.70;49.10;;;;;;5047333;28;20461;-83
2022/06/14 06:55:45;;;;;;;1.73;1.60;;;23.80;48.80;;;;;;5048737;28;20431;-84
2022/06/14 06:58:47;;;;;;;1.10;0.90;;;23.80;48.70;;;;;;5023159;28;20419;-84
2022/06/14 07:01:23;;;;;;;1.47;1.40;;;23.80;49.00;;;;;;5049639;28;20430;-86
2022/06/14 07:03:52;;;;;;;2.40;1.17;;;23.80;49.30;;;;;;5047606;28;20442;-85
2022/06/14 07:06:50;;;;;;;1.17;1.13;;;23.60;52.70;;;;;;5031579;28;20442;-85
2022/06/14 07:09:39;;;;;;;1.90;1.10;;;23.90;48.70;;;;;;5046504;28;20443;-86
2022/06/14 07:12:12;;;;;;;1.30;1.20;;;23.80;56.90;;;;;;5051059;28;20438;-84
2022/06/14 07:14:55;;;;;;;4.30;1.60;;;24.00;48.50;;;;;;5051583;28;20504;-84
2022/06/14 07:17:47;;;;;;;1.57;1.47;;;23.90;49.00;;;;;;5047993;28;20546;-84
2022/06/14 07:20:13;;;;;;;1.70;1.60;;;;;;;;;;5036620;28;20529;-84
2022/06/14 07:22:45;;;;;;;1.00;1.00;;;23.70;59.60;;;;;;5052087;28;20476;-84
2022/06/14 07:25:23;;;;;;;1.30;1.30;;;24.00;48.80;;;;;;5047688;28;20526;-83
2022/06/14 07:28:13;;;;;;;1.33;1.13;;;24.00;48.30;;;;;;5052235;28;20480;-82
2022/06/14 07:30:45;;;;;;;1.63;0.97;;;23.70;52.00;;;;;;5052352;28;20433;-82
2022/06/14 07:33:12;;;;;;;1.33;1.10;;;24.00;48.50;;;;;;5052713;28;20988;-82
2022/06/14 07:35:51;;;;;;;1.40;1.17;;;24.00;48.10;;;;;;5051982;28;20410;-83
2022/06/14 07:38:53;;;;;;;1.20;1.10;;;24.00;48.60;;;;;;5052676;28;20419;-83
2022/06/14 07:41:37;;;;;;;0.80;0.80;;;24.00;48.20;;;;;;5024992;28;20442;-82
2022/06/14 07:44:07;;;;;;;7.57;1.43;;;24.10;48.70;;;;;;5054260;28;20442;-81
2022/06/14 07:46:56;;;;;;;1.93;1.07;;;24.10;48.50;;;;;;5053585;28;20426;-82
2022/06/14 07:49:40;;;;;;;2.10;1.33;;;23.90;68.80;;;;;;5050948;28;20426;-80
2022/06/14 07:52:17;;;;;;;1.13;1.13;;;24.40;67.20;;;;;;5053545;28;20436;-82
2022/06/14 07:54:47;;;;;;;1.80;1.50;;;24.10;48.40;;;;;;5054627;28;20494;-81
2022/06/14 07:57:36;;;;;;;1.30;1.20;;;23.90;48.60;;;;;;5055327;28;20407;-80
2022/06/14 08:03:15;;;;;;;1.27;1.17;;;25.00;48.40;;;;;;5054519;28;20917;-80
2022/06/14 08:05:45;;;;;;;1.30;1.30;;;24.30;48.50;;;;;;5048495;28;20899;-81
2022/06/14 08:08:15;;;;;;;1.57;1.30;;;24.20;48.00;;;;;;5055769;28;20829;-81
2022/06/14 08:10:46;;;;;;;1.43;1.33;;;24.20;70.80;;;;;;5055021;28;20462;-83
2022/06/14 08:13:17;;;;;;;1.73;1.10;;;23.70;48.00;;;;;;5054878;28;20489;-82
2022/06/14 08:15:53;;;;;;;2.73;1.30;;;24.30;47.70;;;;;;5055729;28;20417;-82
2022/06/14 08:18:40;;;;;;;1.90;1.60;;;24.30;47.60;;;;;;5056154;28;20452;-81
2022/06/14 08:21:18;;;;;;;2.70;1.37;;;24.40;50.60;;;;;;5054441;28;20443;-81
2022/06/14 08:23:44;;;;;;;1.40;1.30;;;;;;;;;;5054440;28;20909;-82
2022/06/14 08:26:39;;;;;;;2.03;1.30;;;24.40;47.50;;;;;;5054141;28;20410;-82
2022/06/14 08:29:05;;;;;;;9.07;1.67;;;;;;;;;;5052737;28;20192;-82
2022/06/14 08:31:48;;;;;;;1.37;1.30;;;24.90;47.70;;;;;;5054004;28;20506;-83
2022/06/14 08:34:25;;;;;;;1.80;1.47;;;24.40;47.40;;;;;;5055067;28;20447;-82
2022/06/14 08:37:15;;;;;;;1.10;1.10;;;24.20;54.40;;;;;;5055411;28;20461;-81
2022/06/14 08:39:48;;;;;;;2.37;1.90;;;24.50;47.20;;;;;;5053940;28;20415;-82
2022/06/14 08:42:35;;;;;;;1.80;1.30;;;24.40;62.40;;;;;;5053763;28;20465;-81
2022/06/14 08:45:06;;;;;;;1.40;1.17;;;24.30;48.80;;;;;;5053848;28;20450;-81
2022/06/14 08:48:04;;;;;;;1.70;1.60;;;24.50;47.20;;;;;;5054174;28;20763;-81
2022/06/14 08:50:44;;;;;;;1.60;1.50;;;25.20;47.50;;;;;;5034135;28;20562;-82
2022/06/14 08:53:44;;;;;;;1.20;1.20;;;24.40;47.00;;;;;;5034629;28;20463;-82
2022/06/14 08:56:37;;;;;;;1.60;1.50;;;24.50;47.10;;;;;;5034016;28;20400;-80
2022/06/14 08:59:32;;;;;;;3.07;1.90;;;24.70;48.60;;;;;;5032839;28;20926;-81
2022/06/14 09:02:04;;;;;;;1.40;1.23;;;24.50;55.90;;;;;;5032641;28;20440;-81
2022/06/14 09:04:44;;;;;;;3.33;1.20;;;24.50;46.90;;;;;;5049092;28;20486;-82
2022/06/14 09:07:47;;;;;;;2.27;1.20;;;24.50;46.90;;;;;;5052814;28;20513;-82
2022/06/14 09:10:19;;;;;;;1.33;1.30;;;24.70;69.10;;;;;;5052645;28;20418;-81
2022/06/14 09:13:28;;;;;;;2.13;1.93;;;24.50;46.80;;;;;;5052369;28;20451;-82
2022/06/14 09:16:08;;;;;;;1.20;1.10;;;24.50;46.90;;;;;;5051753;28;20748;-82
2022/06/14 09:18:45;;;;;;;1.40;1.40;;;24.50;46.90;;;;;;5051576;28;20525;-82
2022/06/14 09:21:48;;;;;;;1.20;1.00;;;24.60;53.30;;;;;;5051386;28;20509;-82
2022/06/14 09:24:34;;;;;;;1.20;1.10;;;24.50;46.80;;;;;;5049141;28;20446;-83
2022/06/14 09:27:08;;;;;;;1.40;1.30;;;24.40;46.80;;;;;;5047368;28;20505;-82
2022/06/14 09:29:34;;;;;;;3.37;1.70;;;;;;;;;;5050474;28;20918;-81
2022/06/14 09:32:00;;;;;;;3.23;1.20;;;;;;;;;;5050841;28;20537;-82
2022/06/14 09:34:31;;;;;;;1.83;1.73;;;24.50;46.90;;;;;;5051661;28;20286;-80
2022/06/14 09:37:15;;;;;;;2.33;1.27;;;24.50;47.00;;;;;;5051331;28;20489;-81
2022/06/14 09:40:22;;;;;;;1.53;1.43;;;24.50;47.00;;;;;;5051304;28;20874;-81
2022/06/14 09:43:18;;;;;;;1.50;1.40;;;24.60;47.00;;;;;;5029753;28;20915;-80
2022/06/14 09:45:52;;;;;;;1.70;1.60;;;24.70;62.10;;;;;;5048674;28;20446;-80
2022/06/14 09:48:52;;;;;;;1.90;1.80;;;24.60;50.50;;;;;;5049355;28;20430;-81
2022/06/14 09:51:55;;;;;;;3.10;1.17;;;24.50;47.20;;;;;;5055590;28;20621;-81
2022/06/14 09:54:42;;;;;;;2.07;1.87;;;24.50;50.00;;;;;;5046342;28;20469;-80
2022/06/14 09:57:28;;;;;;;1.77;1.67;;;24.70;47.50;;;;;;5041892;28;20442;-85
2022/06/14 10:00:20;;;;;;;4.40;1.37;;;24.70;47.60;;;;;;5047694;28;20813;-83
2022/06/14 10:03:10;;;;;;;1.77;1.67;;;24.30;47.70;;;;;;5036868;28;21436;-84
2022/06/14 10:06:07;;;;;;;2.23;1.83;;;24.70;47.70;;;;;;5045734;28;20448;-85
2022/06/14 10:08:59;;;;;;;1.37;1.27;;;24.70;51.30;;;;;;5051153;28;20557;-82
2022/06/14 10:11:41;;;;;;;3.80;3.20;;;;;;;;;;5049736;28;20471;-83
2022/06/14 10:14:26;;;;;;;1.60;1.47;;;24.70;47.60;;;;;;5035605;28;20446;-83
2022/06/14 10:17:13;;;;;;;1.80;1.70;;;24.70;47.70;;;;;;5045532;28;20422;-85
2022/06/14 10:19:51;;;;;;;3.87;1.80;;;24.70;50.30;;;;;;5043330;28;20399;-83
2022/06/14 10:22:48;;;;;;;2.77;2.10;;;24.80;47.70;;;;;;5051008;28;20499;-84
2022/06/14 10:25:14;;;;;;;4.00;2.33;;;;;;;;;;5047567;28;20492;-85
2022/06/14 10:28:18;;;;;;;1.53;1.43;;;24.70;47.40;;;;;;5051344;28;20812;-84
2022/06/14 10:31:09;;;;;;;2.20;1.40;;;24.80;47.30;;;;;;5049478;28;20199;-85
2022/06/14 10:34:00;;;;;;;1.43;1.33;;;24.70;47.10;;;;;;5049566;28;20478;-84
2022/06/14 10:36:52;;;;;;;1.80;1.40;;;24.80;46.80;;;;;;5049470;28;20434;-84
2022/06/14 10:39:46;;;;;;;1.33;1.30;;;24.80;46.90;;;;;;5041541;28;20456;-85
2022/06/14 10:42:28;;;;;;;1.30;1.30;;;24.90;56.00;;;;;;5041742;28;20430;-84
2022/06/14 10:44:54;;;;;;;3.03;2.73;;;;;;;;;;5048789;28;20505;-84
2022/06/14 10:47:51;;;;;;;1.60;1.50;;;24.90;46.90;;;;;;5048822;28;20502;-84
2022/06/14 10:50:17;;;;;;;2.07;1.97;;;;;;;;;;5047177;28;20172;-84
2022/06/14 10:53:02;;;;;;;3.13;2.23;;;24.80;46.90;;;;;;5046995;28;20426;-83
2022/06/14 10:55:39;;;;;;;2.40;1.93;;;24.90;48.30;;;;;;5046768;28;20469;-83
2022/06/14 10:58:25;;;;;;;1.57;1.40;;;24.80;46.70;;;;;;5040847;28;20427;-83
2022/06/14 11:01:20;;;;;;;2.53;1.80;;;24.80;46.70;;;;;;5046502;28;20442;-84
2022/06/14 11:03:46;;;;;;;1.30;1.20;;;;;;;;;;5035319;28;20522;-83
2022/06/14 11:06:12;;;;;;;1.40;1.30;;;;;;;;;;5048396;28;20969;-83
2022/06/14 11:09:20;;;;;;;1.57;1.43;;;24.80;46.60;;;;;;5048627;28;20488;-83
2022/06/14 11:12:15;;;;;;;1.77;1.30;;;24.80;46.60;;;;;;5033142;28;20472;-83
2022/06/14 11:15:01;;;;;;;1.47;1.37;;;24.80;46.60;;;;;;5034816;28;20474;-83
2022/06/14 11:17:27;;;;;;;2.80;1.73;;;;;;;;;;5042527;28;20873;-83
2022/06/14 11:20:11;;;;;;;1.60;1.50;;;24.60;46.40;;;;;;5044200;28;20533;-83
2022/06/14 11:22:42;;;;;;;1.57;1.47;;;24.40;47.90;;;;;;5041056;28;20574;-83
2022/06/14 11:25:40;;;;;;;3.03;2.07;;;24.80;46.30;;;;;;5031363;28;20486;-82
2022/06/14 11:28:06;;;;;;;2.10;1.63;;;;;;;;;;5048777;28;20514;-83
2022/06/14 11:30:40;;;;;;;2.40;1.80;;;25.00;46.20;;;;;;5048469;28;20860;-83
2022/06/14 11:33:33;;;;;;;1.17;1.17;;;24.50;48.00;;;;;;5047339;28;20508;-83
2022/06/14 11:35:59;;;;;;;1.30;1.17;;;;;;;;;;5048227;28;20422;-83
2022/06/14 11:38:48;;;;;;;1.20;1.10;;;24.60;48.90;;;;;;5048221;28;20906;-83
2022/06/14 11:41:19;;;;;;;1.13;1.10;;;24.80;47.80;;;;;;5049002;28;20434;-83
2022/06/14 11:43:45;;;;;;;1.20;1.20;;;;;;;;;;5031110;28;20449;-83
2022/06/14 11:46:26;;;;;;;2.70;1.53;;;24.80;47.90;;;;;;5042169;28;20439;-83
2022/06/14 11:49:03;;;;;;;1.90;1.30;;;24.80;46.10;;;;;;5046150;28;20806;-83
2022/06/14 11:51:52;;;;;;;1.27;1.17;;;24.80;48.00;;;;;;5041932;28;20523;-83
2022/06/14 11:54:19;;;;;;;1.47;1.37;;;;;;;;;;5043489;28;20465;-83
2022/06/14 11:56:45;;;;;;;1.50;1.30;;;;;;;;;;5036831;28;20442;-83
2022/06/14 11:59:23;;;;;;;2.73;1.67;;;24.90;46.80;;;;;;5022959;28;20973;-83
2022/06/14 12:02:30;;;;;;;13.87;1.73;;;24.90;46.60;;;;;;5045145;28;20788;-83
2022/06/14 12:05:11;;;;;;;2.90;1.50;;;24.80;46.60;;;;;;4983715;28;20872;-83
2022/06/14 12:07:45;;;;;;;3.10;1.60;;;24.90;46.70;;;;;;5043300;28;20438;-82
2022/06/14 12:10:22;;;;;;;2.33;1.57;;;25.00;49.70;;;;;;5051712;28;20421;-83
2022/06/14 12:13:13;;;;;;;1.57;1.57;;;25.00;46.90;;;;;;5052015;28;20494;-83
2022/06/14 12:15:55;;;;;;;1.73;1.50;;;24.90;58.20;;;;;;5052133;28;20507;-85
2022/06/14 12:18:27;;;;;;;2.50;2.30;;;25.00;49.50;;;;;;5032862;28;20450;-84
2022/06/14 12:21:10;;;;;;;2.87;2.00;;;24.60;54.30;;;;;;5050076;28;20434;-84
2022/06/14 12:23:53;;;;;;;1.33;1.30;;;25.00;46.90;;;;;;5034050;28;21041;-83
2022/06/14 12:26:40;;;;;;;1.50;1.40;;;25.10;46.90;;;;;;5028072;28;20428;-84
2022/06/14 12:29:28;;;;;;;2.63;1.57;;;25.00;46.90;;;;;;5049047;28;20811;-85
2022/06/14 12:32:16;;;;;;;2.20;1.23;;;25.00;46.90;;;;;;5050930;28;20446;-84
2022/06/14 12:34:53;;;;;;;1.70;1.60;;;24.90;57.80;;;;;;5051174;28;20446;-84
2022/06/14 12:37:36;;;;;;;1.23;1.23;;;25.10;49.20;;;;;;5051219;28;20415;-84
2022/06/14 12:40:06;;;;;;;2.70;1.57;;;25.30;49.30;;;;;;5049951;28;20890;-84
2022/06/14 12:42:32;;;;;;;1.77;1.67;;;;;;;;;;5050664;28;20431;-83
2022/06/14 12:44:58;;;;;;;1.57;1.47;;;;;;;;;;5050188;28;20559;-83
2022/06/14 12:47:48;;;;;;;1.40;1.30;;;23.30;47.20;;;;;;5051780;28;20946;-83
2022/06/14 12:50:29;;;;;;;1.67;1.43;;;26.70;48.50;;;;;;5032115;28;20445;-83
2022/06/14 12:53:01;;;;;;;1.20;1.20;;;24.90;49.10;;;;;;5050807;28;21036;-83
2022/06/14 12:55:27;;;;;;;1.40;1.30;;;;;;;;;;5051159;28;20501;-83
2022/06/14 12:58:12;;;;;;;1.50;1.50;;;25.00;58.30;;;;;;5051998;28;20834;-82
2022/06/14 13:00:51;;;;;;;1.40;1.30;;;25.00;47.60;;;;;;5050212;28;20656;-83
2022/06/14 13:03:26;;;;;;;2.10;1.47;;;25.30;52.50;;;;;;5049127;28;20429;-84
2022/06/14 13:06:18;;;;;;;1.57;1.47;;;24.70;48.80;;;;;;5051341;28;20414;-83
2022/06/14 13:09:08;;;;;;;1.47;1.37;;;25.10;49.20;;;;;;5041831;28;20431;-84
2022/06/14 13:11:34;;;;;;;1.50;1.40;;;;;;;;;;5048793;28;20989;-83
2022/06/14 13:14:08;;;;;;;1.00;1.00;;;25.10;61.70;;;;;;5051516;28;20466;-83
2022/06/14 13:16:55;;;;;;;1.20;1.20;;;25.10;48.30;;;;;;5047091;28;20288;-83
2022/06/14 13:19:43;;;;;;;3.00;1.70;;;25.10;48.50;;;;;;5049186;28;20494;-83
2022/06/14 13:22:35;;;;;;;2.43;1.70;;;25.10;50.00;;;;;;5051074;28;20434;-83
2022/06/14 13:26:05;;;;;;;2.40;2.00;;;25.10;48.50;;;;;;5050403;28;20431;-86
2022/06/14 13:28:46;;;;;;;4.27;2.47;;;25.10;48.40;;;;;;4997698;28;21092;-83
2022/06/14 13:31:37;;;;;;;6.57;2.73;;;25.20;48.40;;;;;;5042678;28;20458;-83
2022/06/14 13:34:37;;;;;;;2.50;1.77;;;25.20;48.50;;;;;;5051585;28;20887;-83
2022/06/14 13:37:22;;;;;;;2.07;1.80;;;25.10;48.30;;;;;;5051465;28;20789;-83
2022/06/14 13:40:05;;;;;;;2.20;1.67;;;25.10;48.30;;;;;;5051452;28;20502;-82
2022/06/14 13:42:59;;;;;;;2.40;1.60;;;25.10;48.30;;;;;;5051687;28;20528;-83
2022/06/14 13:45:41;;;;;;;1.53;1.43;;;25.10;48.30;;;;;;5046054;28;20431;-82
2022/06/14 13:48:31;;;;;;;3.33;1.57;;;25.10;48.40;;;;;;5051706;28;20422;-82
2022/06/14 13:51:16;;;;;;;1.00;1.00;;;25.10;48.40;;;;;;5052169;28;20965;-82
2022/06/14 13:53:54;;;;;;;2.53;1.90;;;25.00;48.50;;;;;;5052217;28;20882;-82
2022/06/14 13:56:28;;;;;;;1.63;1.17;;;25.10;49.60;;;;;;5051883;28;20410;-83
2022/06/14 13:59:20;;;;;;;1.70;1.60;;;25.10;48.70;;;;;;5051910;28;20383;-83
2022/06/14 14:01:50;;;;;;;1.43;1.33;;;25.10;50.20;;;;;;5050896;28;20946;-82
2022/06/14 14:04:44;;;;;;;1.30;1.20;;;25.00;48.50;;;;;;5050727;28;20544;-83
2022/06/14 14:07:28;;;;;;;1.30;1.20;;;25.10;59.20;;;;;;5051324;28;20484;-82
2022/06/14 14:10:17;;;;;;;2.83;1.67;;;25.40;48.90;;;;;;5050365;28;20966;-83
2022/06/14 14:13:11;;;;;;;1.73;1.63;;;25.20;52.50;;;;;;5051426;28;20403;-83
2022/06/14 14:15:43;;;;;;;2.20;1.20;;;25.10;48.80;;;;;;5051093;28;20901;-82
2022/06/14 14:18:11;;;;;;;1.93;1.07;;;;;;;;;;5051708;28;20417;-83